sensor_id;sensor_type;location;lat;lon;timestamp;pressure;altitude;pressure_sealevel;temperature;humidity
16255;BME280;8235;52.198;9.904;2022-07-22T00:00:34;101026.13;;;19.64;78.63
16255;BME280;8235;52.198;9.904;2022-07-22T00:03:00;101035.09;;;19.64;78.56
16255;BME280;8235;52.198;9.904;2022-07-22T00:05:27;101032.53;;;19.63;78.70
16255;BME280;8235;52.198;9.904;2022-07-22T00:07:53;101037.94;;;19.63;78.42
16255;BME280;8235;52.198;9.904;2022-07-22T00:10:20;101036.38;;;19.60;78.58
16255;BME280;8235;52.198;9.904;2022-07-22T00:12:46;101025.72;;;19.59;78.53
16255;BME280;8235;52.198;9.904;2022-07-22T00:15:13;101030.41;;;19.57;78.43
16255;BME280;8235;52.198;9.904;2022-07-22T00:17:41;101026.00;;;19.56;78.77
16255;BME280;8235;52.198;9.904;2022-07-22T00:20:08;101027.00;;;19.55;78.77
16255;BME280;8235;52.198;9.904;2022-07-22T00:22:35;101030.88;;;19.52;78.95
16255;BME280;8235;52.198;9.904;2022-07-22T00:25:02;101026.59;;;19.50;78.89
16255;BME280;8235;52.198;9.904;2022-07-22T00:27:29;101020.47;;;19.48;78.89
16255;BME280;8235;52.198;9.904;2022-07-22T00:29:56;101011.78;;;19.44;79.01
16255;BME280;8235;52.198;9.904;2022-07-22T00:32:23;101013.91;;;19.40;79.17
16255;BME280;8235;52.198;9.904;2022-07-22T00:34:50;101011.50;;;19.37;79.37
16255;BME280;8235;52.198;9.904;2022-07-22T00:37:17;101014.34;;;19.36;79.50
16255;BME280;8235;52.198;9.904;2022-07-22T00:39:43;101014.53;;;19.34;79.80
16255;BME280;8235;52.198;9.904;2022-07-22T00:42:10;101011.09;;;19.32;79.89
16255;BME280;8235;52.198;9.904;2022-07-22T00:44:37;101024.75;;;19.31;79.99
16255;BME280;8235;52.198;9.904;2022-07-22T00:47:04;101019.50;;;19.29;80.20
16255;BME280;8235;52.198;9.904;2022-07-22T00:49:31;101014.22;;;19.28;80.24
16255;BME280;8235;52.198;9.904;2022-07-22T00:51:59;101022.47;;;19.26;80.47
16255;BME280;8235;52.198;9.904;2022-07-22T00:54:25;101012.81;;;19.24;80.54
16255;BME280;8235;52.198;9.904;2022-07-22T00:56:52;101017.50;;;19.22;80.62
16255;BME280;8235;52.198;9.904;2022-07-22T00:59:19;101017.78;;;19.19;81.01
16255;BME280;8235;52.198;9.904;2022-07-22T01:01:46;101017.09;;;19.17;81.22
16255;BME280;8235;52.198;9.904;2022-07-22T01:04:13;101012.84;;;19.14;81.32
16255;BME280;8235;52.198;9.904;2022-07-22T01:06:40;101018.53;;;19.11;81.23
16255;BME280;8235;52.198;9.904;2022-07-22T01:09:11;101020.22;;;19.12;81.39
16255;BME280;8235;52.198;9.904;2022-07-22T01:11:39;101016.81;;;19.10;81.57
16255;BME280;8235;52.198;9.904;2022-07-22T01:14:06;101017.81;;;19.09;81.43
16255;BME280;8235;52.198;9.904;2022-07-22T01:16:32;101019.78;;;19.07;81.55
16255;BME280;8235;52.198;9.904;2022-07-22T01:18:59;101031.44;;;19.07;81.42
16255;BME280;8235;52.198;9.904;2022-07-22T01:21:27;101016.09;;;19.08;81.74
16255;BME280;8235;52.198;9.904;2022-07-22T01:23:53;101016.09;;;19.08;81.57
16255;BME280;8235;52.198;9.904;2022-07-22T01:26:20;101026.03;;;19.07;81.67
16255;BME280;8235;52.198;9.904;2022-07-22T01:28:46;101026.03;;;19.07;81.60
16255;BME280;8235;52.198;9.904;2022-07-22T01:31:13;101021.63;;;19.06;81.78
16255;BME280;8235;52.198;9.904;2022-07-22T01:33:39;101022.50;;;19.07;81.85
16255;BME280;8235;52.198;9.904;2022-07-22T01:36:07;101027.03;;;19.06;81.90
16255;BME280;8235;52.198;9.904;2022-07-22T01:38:35;101020.78;;;19.06;82.11
16255;BME280;8235;52.198;9.904;2022-07-22T01:41:01;101027.88;;;19.07;82.35
16255;BME280;8235;52.198;9.904;2022-07-22T01:43:28;101024.34;;;19.06;82.83
16255;BME280;8235;52.198;9.904;2022-07-22T01:45:55;101026.03;;;19.07;83.10
16255;BME280;8235;52.198;9.904;2022-07-22T01:48:22;101031.31;;;19.09;83.29
16255;BME280;8235;52.198;9.904;2022-07-22T01:50:49;101035.72;;;19.10;83.17
16255;BME280;8235;52.198;9.904;2022-07-22T01:53:16;101044.66;;;19.11;83.54
16255;BME280;8235;52.198;9.904;2022-07-22T01:55:44;101033.72;;;19.12;83.90
16255;BME280;8235;52.198;9.904;2022-07-22T01:58:10;101038.97;;;19.14;84.35
16255;BME280;8235;52.198;9.904;2022-07-22T02:00:37;101028.91;;;19.16;84.81
16255;BME280;8235;52.198;9.904;2022-07-22T02:03:04;101037.84;;;19.16;85.15
16255;BME280;8235;52.198;9.904;2022-07-22T02:05:32;101042.41;;;19.16;85.32
16255;BME280;8235;52.198;9.904;2022-07-22T02:07:59;101040.69;;;19.15;85.93
16255;BME280;8235;52.198;9.904;2022-07-22T02:10:26;101040.69;;;19.15;86.29
16255;BME280;8235;52.198;9.904;2022-07-22T02:12:54;101046.22;;;19.13;86.80
16255;BME280;8235;52.198;9.904;2022-07-22T02:15:21;101042.69;;;19.13;87.07
16255;BME280;8235;52.198;9.904;2022-07-22T02:17:48;101042.69;;;19.13;87.61
16255;BME280;8235;52.198;9.904;2022-07-22T02:20:14;101036.41;;;19.12;87.99
16255;BME280;8235;52.198;9.904;2022-07-22T02:22:41;101038.28;;;19.12;88.44
16255;BME280;8235;52.198;9.904;2022-07-22T02:25:08;101037.28;;;19.13;88.51
16255;BME280;8235;52.198;9.904;2022-07-22T02:27:35;101038.13;;;19.13;88.69
16255;BME280;8235;52.198;9.904;2022-07-22T02:30:04;101039.84;;;19.14;88.78
16255;BME280;8235;52.198;9.904;2022-07-22T02:32:30;101037.13;;;19.14;88.84
16255;BME280;8235;52.198;9.904;2022-07-22T02:34:57;101044.25;;;19.15;89.01
16255;BME280;8235;52.198;9.904;2022-07-22T02:37:24;101047.94;;;19.14;89.25
16255;BME280;8235;52.198;9.904;2022-07-22T02:39:50;101047.94;;;19.14;89.43
16255;BME280;8235;52.198;9.904;2022-07-22T02:42:17;101051.63;;;19.13;89.64
16255;BME280;8235;52.198;9.904;2022-07-22T02:44:43;101045.50;;;19.11;89.76
16255;BME280;8235;52.198;9.904;2022-07-22T02:47:11;101055.59;;;19.09;89.91
16255;BME280;8235;52.198;9.904;2022-07-22T02:49:38;101049.75;;;19.04;90.19
16255;BME280;8235;52.198;9.904;2022-07-22T02:52:04;101062.69;;;19.00;90.25
16255;BME280;8235;52.198;9.904;2022-07-22T02:54:31;101055.31;;;18.93;90.26
16255;BME280;8235;52.198;9.904;2022-07-22T02:56:58;101068.50;;;18.86;90.09
16255;BME280;8235;52.198;9.904;2022-07-22T02:59:24;101071.06;;;18.78;90.11
16255;BME280;8235;52.198;9.904;2022-07-22T03:01:51;101075.31;;;18.71;90.07
16255;BME280;8235;52.198;9.904;2022-07-22T03:04:19;101072.28;;;18.64;89.98
16255;BME280;8235;52.198;9.904;2022-07-22T03:06:45;101075.44;;;18.60;90.22
16255;BME280;8235;52.198;9.904;2022-07-22T03:09:12;101075.81;;;18.55;90.19
16255;BME280;8235;52.198;9.904;2022-07-22T03:11:38;101079.75;;;18.51;90.35
16255;BME280;8235;52.198;9.904;2022-07-22T03:14:05;101083.72;;;18.47;90.25
16255;BME280;8235;52.198;9.904;2022-07-22T03:16:31;101090.28;;;18.45;90.58
16255;BME280;8235;52.198;9.904;2022-07-22T03:18:58;101088.84;;;18.41;90.49
16255;BME280;8235;52.198;9.904;2022-07-22T03:21:26;101097.31;;;18.36;90.44
16255;BME280;8235;52.198;9.904;2022-07-22T03:23:52;101097.59;;;18.33;90.40
16255;BME280;8235;52.198;9.904;2022-07-22T03:26:19;101099.13;;;18.26;90.48
16255;BME280;8235;52.198;9.904;2022-07-22T03:28:46;101100.41;;;18.22;90.26
16255;BME280;8235;52.198;9.904;2022-07-22T03:31:13;101108.03;;;18.17;90.42
16255;BME280;8235;52.198;9.904;2022-07-22T03:33:40;101106.84;;;18.10;90.30
16255;BME280;8235;52.198;9.904;2022-07-22T03:36:06;101104.44;;;18.07;90.52
16255;BME280;8235;52.198;9.904;2022-07-22T03:38:35;101101.16;;;18.03;90.51
16255;BME280;8235;52.198;9.904;2022-07-22T03:41:01;101107.78;;;17.99;90.53
16255;BME280;8235;52.198;9.904;2022-07-22T03:43:29;101112.59;;;17.95;90.50
16255;BME280;8235;52.198;9.904;2022-07-22T03:45:55;101117.56;;;17.90;90.67
16255;BME280;8235;52.198;9.904;2022-07-22T03:48:22;101109.72;;;17.87;90.72
16255;BME280;8235;52.198;9.904;2022-07-22T03:50:49;101109.84;;;17.86;91.00
16255;BME280;8235;52.198;9.904;2022-07-22T03:53:16;101109.13;;;17.84;90.91
16255;BME280;8235;52.198;9.904;2022-07-22T03:55:44;101117.34;;;17.82;91.10
16255;BME280;8235;52.198;9.904;2022-07-22T03:58:11;101115.50;;;17.83;91.14
16255;BME280;8235;52.198;9.904;2022-07-22T04:00:37;101118.31;;;17.81;91.12
16255;BME280;8235;52.198;9.904;2022-07-22T04:03:04;101122.00;;;17.80;91.11
16255;BME280;8235;52.198;9.904;2022-07-22T04:05:31;101121.16;;;17.80;91.06
16255;BME280;8235;52.198;9.904;2022-07-22T04:07:57;101127.41;;;17.80;91.19
16255;BME280;8235;52.198;9.904;2022-07-22T04:10:24;101125.69;;;17.79;91.02
16255;BME280;8235;52.198;9.904;2022-07-22T04:12:52;101127.53;;;17.79;91.07
16255;BME280;8235;52.198;9.904;2022-07-22T04:15:18;101126.78;;;17.77;91.05
16255;BME280;8235;52.198;9.904;2022-07-22T04:17:45;101133.28;;;17.74;90.94
16255;BME280;8235;52.198;9.904;2022-07-22T04:20:11;101129.75;;;17.74;90.94
16255;BME280;8235;52.198;9.904;2022-07-22T04:22:38;101128.06;;;17.73;90.97
16255;BME280;8235;52.198;9.904;2022-07-22T04:25:05;101137.13;;;17.72;90.88
16255;BME280;8235;52.198;9.904;2022-07-22T04:27:32;101131.16;;;17.68;90.93
16255;BME280;8235;52.198;9.904;2022-07-22T04:30:00;101134.94;;;17.65;90.75
16255;BME280;8235;52.198;9.904;2022-07-22T04:32:27;101140.47;;;17.64;90.94
16255;BME280;8235;52.198;9.904;2022-07-22T04:34:53;101136.88;;;17.63;91.06
16255;BME280;8235;52.198;9.904;2022-07-22T04:37:20;101146.81;;;17.63;91.11
16255;BME280;8235;52.198;9.904;2022-07-22T04:39:46;101146.81;;;17.63;91.23
16255;BME280;8235;52.198;9.904;2022-07-22T04:42:13;101144.13;;;17.63;91.30
16255;BME280;8235;52.198;9.904;2022-07-22T04:44:39;101148.78;;;17.61;91.14
16255;BME280;8235;52.198;9.904;2022-07-22T04:47:07;101153.31;;;17.60;90.96
16255;BME280;8235;52.198;9.904;2022-07-22T04:49:34;101156.97;;;17.59;90.90
16255;BME280;8235;52.198;9.904;2022-07-22T04:52:00;101149.88;;;17.58;90.78
16255;BME280;8235;52.198;9.904;2022-07-22T04:54:26;101143.75;;;17.56;90.53
16255;BME280;8235;52.198;9.904;2022-07-22T04:56:53;101153.00;;;17.54;90.57
16255;BME280;8235;52.198;9.904;2022-07-22T04:59:20;101147.72;;;17.52;90.51
16255;BME280;8235;52.198;9.904;2022-07-22T05:01:46;101152.38;;;17.50;90.28
16255;BME280;8235;52.198;9.904;2022-07-22T05:04:15;101157.16;;;17.47;89.73
16255;BME280;8235;52.198;9.904;2022-07-22T05:06:41;101159.88;;;17.47;90.03
16255;BME280;8235;52.198;9.904;2022-07-22T05:09:08;101160.72;;;17.47;90.11
16255;BME280;8235;52.198;9.904;2022-07-22T05:11:34;101162.56;;;17.47;89.91
16255;BME280;8235;52.198;9.904;2022-07-22T05:14:01;101169.91;;;17.45;89.46
16255;BME280;8235;52.198;9.904;2022-07-22T05:16:27;101171.13;;;17.41;89.37
16255;BME280;8235;52.198;9.904;2022-07-22T05:18:53;101166.72;;;17.40;89.00
16255;BME280;8235;52.198;9.904;2022-07-22T05:21:21;101172.41;;;17.37;88.78
16255;BME280;8235;52.198;9.904;2022-07-22T05:23:48;101169.84;;;17.35;88.80
16255;BME280;8235;52.198;9.904;2022-07-22T05:26:14;101168.97;;;17.34;88.64
16255;BME280;8235;52.198;9.904;2022-07-22T05:28:41;101173.50;;;17.34;88.57
16255;BME280;8235;52.198;9.904;2022-07-22T05:31:07;101173.38;;;17.35;88.69
16255;BME280;8235;52.198;9.904;2022-07-22T05:33:34;101173.25;;;17.37;88.82
16255;BME280;8235;52.198;9.904;2022-07-22T05:36:01;101177.50;;;17.40;88.95
16255;BME280;8235;52.198;9.904;2022-07-22T05:38:31;101180.94;;;17.42;88.60
16255;BME280;8235;52.198;9.904;2022-07-22T05:40:58;101178.09;;;17.43;88.98
16255;BME280;8235;52.198;9.904;2022-07-22T05:43:24;101177.97;;;17.45;88.75
16255;BME280;8235;52.198;9.904;2022-07-22T05:45:51;101178.84;;;17.45;88.43
16255;BME280;8235;52.198;9.904;2022-07-22T05:48:17;101178.09;;;17.43;88.00
16255;BME280;8235;52.198;9.904;2022-07-22T05:50:44;101180.94;;;17.42;87.66
16255;BME280;8235;52.198;9.904;2022-07-22T05:53:11;101177.38;;;17.41;87.71
16255;BME280;8235;52.198;9.904;2022-07-22T05:55:39;101180.94;;;17.42;87.23
16255;BME280;8235;52.198;9.904;2022-07-22T05:58:05;101184.59;;;17.41;87.13
16255;BME280;8235;52.198;9.904;2022-07-22T06:00:32;101191.94;;;17.39;86.87
16255;BME280;8235;52.198;9.904;2022-07-22T06:02:58;101190.97;;;17.40;86.64
16255;BME280;8235;52.198;9.904;2022-07-22T06:05:25;101185.72;;;17.38;86.56
16255;BME280;8235;52.198;9.904;2022-07-22T06:07:51;101185.59;;;17.40;86.30
16255;BME280;8235;52.198;9.904;2022-07-22T06:10:18;101190.84;;;17.41;86.10
16255;BME280;8235;52.198;9.904;2022-07-22T06:12:46;101199.78;;;17.42;85.90
16255;BME280;8235;52.198;9.904;2022-07-22T06:15:12;101194.50;;;17.40;85.38
16255;BME280;8235;52.198;9.904;2022-07-22T06:17:39;101193.66;;;17.40;85.11
16255;BME280;8235;52.198;9.904;2022-07-22T06:20:06;101190.00;;;17.41;85.04
16255;BME280;8235;52.198;9.904;2022-07-22T06:22:33;101187.03;;;17.44;85.01
16255;BME280;8235;52.198;9.904;2022-07-22T06:24:59;101190.59;;;17.44;84.96
16255;BME280;8235;52.198;9.904;2022-07-22T06:27:26;101192.19;;;17.47;84.66
16255;BME280;8235;52.198;9.904;2022-07-22T06:29:54;101190.34;;;17.47;84.49
16255;BME280;8235;52.198;9.904;2022-07-22T06:32:20;101197.44;;;17.48;84.45
16255;BME280;8235;52.198;9.904;2022-07-22T06:34:46;101197.44;;;17.48;84.15
16255;BME280;8235;52.198;9.904;2022-07-22T06:37:13;101197.44;;;17.48;84.10
16255;BME280;8235;52.198;9.904;2022-07-22T06:39:39;101201.00;;;17.49;83.86
16255;BME280;8235;52.198;9.904;2022-07-22T06:42:06;101205.38;;;17.50;83.74
16255;BME280;8235;52.198;9.904;2022-07-22T06:44:33;101202.69;;;17.50;83.32
16255;BME280;8235;52.198;9.904;2022-07-22T06:47:01;101199.75;;;17.53;83.44
16255;BME280;8235;52.198;9.904;2022-07-22T06:49:27;101195.22;;;17.53;83.24
16255;BME280;8235;52.198;9.904;2022-07-22T06:51:54;101204.03;;;17.55;83.50
16255;BME280;8235;52.198;9.904;2022-07-22T06:54:20;101201.34;;;17.55;83.15
16255;BME280;8235;52.198;9.904;2022-07-22T06:56:47;101203.19;;;17.55;83.22
16255;BME280;8235;52.198;9.904;2022-07-22T06:59:13;101208.56;;;17.55;83.39
16255;BME280;8235;52.198;9.904;2022-07-22T07:01:40;101206.84;;;17.54;83.34
16255;BME280;8235;52.198;9.904;2022-07-22T07:04:08;101205.88;;;17.55;83.48
16255;BME280;8235;52.198;9.904;2022-07-22T07:06:34;101208.56;;;17.55;83.58
16255;BME280;8235;52.198;9.904;2022-07-22T07:09:01;101212.13;;;17.55;83.68
16255;BME280;8235;52.198;9.904;2022-07-22T07:11:28;101208.41;;;17.56;83.53
16255;BME280;8235;52.198;9.904;2022-07-22T07:13:55;101209.41;;;17.55;83.85
16255;BME280;8235;52.198;9.904;2022-07-22T07:16:21;101211.97;;;17.57;84.16
16255;BME280;8235;52.198;9.904;2022-07-22T07:18:47;101209.75;;;17.62;84.41
16255;BME280;8235;52.198;9.904;2022-07-22T07:21:15;101207.91;;;17.62;84.41
16255;BME280;8235;52.198;9.904;2022-07-22T07:23:42;101206.06;;;17.63;84.20
16255;BME280;8235;52.198;9.904;2022-07-22T07:26:08;101205.13;;;17.64;84.12
16255;BME280;8235;52.198;9.904;2022-07-22T07:28:35;101201.44;;;17.65;84.06
16255;BME280;8235;52.198;9.904;2022-07-22T07:31:02;101209.28;;;17.68;84.13
16255;BME280;8235;52.198;9.904;2022-07-22T07:33:29;101210.97;;;17.69;84.01
16255;BME280;8235;52.198;9.904;2022-07-22T07:35:55;101218.06;;;17.70;83.79
16255;BME280;8235;52.198;9.904;2022-07-22T07:38:23;101213.53;;;17.71;83.51
16255;BME280;8235;52.198;9.904;2022-07-22T07:40:50;101212.69;;;17.70;83.43
16255;BME280;8235;52.198;9.904;2022-07-22T07:43:16;101210.84;;;17.71;83.39
16255;BME280;8235;52.198;9.904;2022-07-22T07:45:43;101205.34;;;17.72;83.41
16255;BME280;8235;52.198;9.904;2022-07-22T07:48:10;101204.94;;;17.77;83.48
16255;BME280;8235;52.198;9.904;2022-07-22T07:50:36;101200.13;;;17.80;83.28
16255;BME280;8235;52.198;9.904;2022-07-22T07:53:03;101196.94;;;17.86;83.45
16255;BME280;8235;52.198;9.904;2022-07-22T07:55:31;101201.78;;;17.92;83.14
16255;BME280;8235;52.198;9.904;2022-07-22T07:58:01;101201.13;;;18.00;82.97
16255;BME280;8235;52.198;9.904;2022-07-22T08:00:27;101203.19;;;18.08;82.89
16255;BME280;8235;52.198;9.904;2022-07-22T08:02:57;101203.38;;;18.16;82.21
16255;BME280;8235;52.198;9.904;2022-07-22T08:05:24;101207.50;;;18.20;81.24
16255;BME280;8235;52.198;9.904;2022-07-22T08:07:51;101206.41;;;18.22;80.70
16255;BME280;8235;52.198;9.904;2022-07-22T08:10:18;101203.75;;;18.32;80.59
16255;BME280;8235;52.198;9.904;2022-07-22T08:12:47;101205.78;;;18.39;80.45
16255;BME280;8235;52.198;9.904;2022-07-22T08:15:14;101207.78;;;18.47;79.87
16255;BME280;8235;52.198;9.904;2022-07-22T08:17:41;101212.53;;;18.55;79.41
16255;BME280;8235;52.198;9.904;2022-07-22T08:20:08;101213.56;;;18.63;78.83
16255;BME280;8235;52.198;9.904;2022-07-22T08:22:34;101213.03;;;18.69;78.05
16255;BME280;8235;52.198;9.904;2022-07-22T08:25:01;101206.25;;;18.75;77.75
16255;BME280;8235;52.198;9.904;2022-07-22T08:27:28;101215.38;;;18.84;77.44
16255;BME280;8235;52.198;9.904;2022-07-22T08:29:55;101217.13;;;18.94;77.16
16255;BME280;8235;52.198;9.904;2022-07-22T08:32:22;101207.06;;;19.06;77.41
16255;BME280;8235;52.198;9.904;2022-07-22T08:34:48;101214.34;;;19.15;76.43
16255;BME280;8235;52.198;9.904;2022-07-22T08:37:16;101207.25;;;19.24;75.81
16255;BME280;8235;52.198;9.904;2022-07-22T08:39:43;101209.25;;;19.31;74.86
16255;BME280;8235;52.198;9.904;2022-07-22T08:42:10;101207.97;;;19.35;73.98
16255;BME280;8235;52.198;9.904;2022-07-22T08:44:39;101219.34;;;19.39;73.80
16255;BME280;8235;52.198;9.904;2022-07-22T08:47:07;101219.91;;;19.42;73.61
16255;BME280;8235;52.198;9.904;2022-07-22T08:49:34;101220.78;;;19.43;73.39
16255;BME280;8235;52.198;9.904;2022-07-22T08:52:00;101216.09;;;19.45;73.37
16255;BME280;8235;52.198;9.904;2022-07-22T08:54:27;101225.75;;;19.48;73.30
16255;BME280;8235;52.198;9.904;2022-07-22T08:56:54;101221.97;;;19.50;73.12
16255;BME280;8235;52.198;9.904;2022-07-22T08:59:20;101219.81;;;19.54;73.09
16255;BME280;8235;52.198;9.904;2022-07-22T09:02:04;101213.00;;;19.59;72.85
16255;BME280;8235;52.198;9.904;2022-07-22T09:04:50;101219.97;;;19.62;72.89
16255;BME280;8235;52.198;9.904;2022-07-22T09:07:23;101222.41;;;19.65;72.48
16255;BME280;8235;52.198;9.904;2022-07-22T09:09:50;101222.13;;;19.68;72.36
16255;BME280;8235;52.198;9.904;2022-07-22T09:12:16;101226.22;;;19.72;72.57
16255;BME280;8235;52.198;9.904;2022-07-22T09:14:44;101225.53;;;19.80;72.42
16255;BME280;8235;52.198;9.904;2022-07-22T09:17:25;101230.66;;;19.83;71.93
16255;BME280;8235;52.198;9.904;2022-07-22T09:19:53;101228.38;;;19.88;71.45
16255;BME280;8235;52.198;9.904;2022-07-22T09:22:38;101235.47;;;19.89;71.54
16255;BME280;8235;52.198;9.904;2022-07-22T09:25:26;101227.66;;;19.86;70.91
16255;BME280;8235;52.198;9.904;2022-07-22T09:27:56;101224.25;;;19.84;70.85
16255;BME280;8235;52.198;9.904;2022-07-22T09:30:37;101226.09;;;19.83;70.89
16255;BME280;8235;52.198;9.904;2022-07-22T09:33:05;101234.34;;;19.82;70.44
16255;BME280;8235;52.198;9.904;2022-07-22T09:35:33;101226.94;;;19.84;70.86
16255;BME280;8235;52.198;9.904;2022-07-22T09:38:03;101228.22;;;19.89;70.84
16255;BME280;8235;52.198;9.904;2022-07-22T09:40:31;101229.63;;;19.93;70.81
16255;BME280;8235;52.198;9.904;2022-07-22T09:43:00;101227.38;;;19.98;70.57
16255;BME280;8235;52.198;9.904;2022-07-22T09:45:29;101220.69;;;20.02;69.86
16255;BME280;8235;52.198;9.904;2022-07-22T09:47:57;101217.69;;;20.05;69.85
16255;BME280;8235;52.198;9.904;2022-07-22T09:50:26;101223.50;;;20.10;69.66
16255;BME280;8235;52.198;9.904;2022-07-22T09:52:56;101218.22;;;20.19;69.48
16255;BME280;8235;52.198;9.904;2022-07-22T09:55:24;101214.25;;;20.23;69.20
16255;BME280;8235;52.198;9.904;2022-07-22T09:57:52;101236.28;;;20.28;69.05
16255;BME280;8235;52.198;9.904;2022-07-22T10:00:21;101216.19;;;20.30;68.51
16255;BME280;8235;52.198;9.904;2022-07-22T10:02:51;101224.16;;;20.32;68.06
16255;BME280;8235;52.198;9.904;2022-07-22T10:05:20;101230.28;;;20.34;68.12
16255;BME280;8235;52.198;9.904;2022-07-22T10:07:47;101225.72;;;20.34;67.86
16255;BME280;8235;52.198;9.904;2022-07-22T10:10:18;101228.03;;;20.39;67.88
16255;BME280;8235;52.198;9.904;2022-07-22T10:12:47;101218.78;;;20.41;67.54
16255;BME280;8235;52.198;9.904;2022-07-22T10:15:15;101222.72;;;20.47;67.63
16255;BME280;8235;52.198;9.904;2022-07-22T10:17:44;101214.31;;;20.50;67.12
16255;BME280;8235;52.198;9.904;2022-07-22T10:20:11;101220.16;;;20.55;67.58
16255;BME280;8235;52.198;9.904;2022-07-22T10:22:49;101210.44;;;20.62;67.52
16255;BME280;8235;52.198;9.904;2022-07-22T10:25:18;101214.13;;;20.71;67.24
16255;BME280;8235;52.198;9.904;2022-07-22T10:27:47;101208.63;;;20.80;67.19
16255;BME280;8235;52.198;9.904;2022-07-22T10:30:15;101210.47;;;20.90;66.50
16255;BME280;8235;52.198;9.904;2022-07-22T10:32:42;101213.88;;;20.92;65.83
16255;BME280;8235;52.198;9.904;2022-07-22T10:35:20;101220.84;;;20.94;65.55
16255;BME280;8235;52.198;9.904;2022-07-22T10:37:49;101214.25;;;20.97;64.98
16255;BME280;8235;52.198;9.904;2022-07-22T10:40:20;101220.09;;;21.02;64.87
16255;BME280;8235;52.198;9.904;2022-07-22T10:43:08;101217.78;;;21.07;64.74
16255;BME280;8235;52.198;9.904;2022-07-22T10:45:37;101213.44;;;21.14;64.20
16255;BME280;8235;52.198;9.904;2022-07-22T10:48:05;101212.16;;;21.18;63.89
16255;BME280;8235;52.198;9.904;2022-07-22T10:51:07;101204.31;;;21.25;63.72
16255;BME280;8235;52.198;9.904;2022-07-22T10:53:42;101211.84;;;21.31;63.59
16255;BME280;8235;52.198;9.904;2022-07-22T10:56:16;101208.34;;;21.38;63.26
16255;BME280;8235;52.198;9.904;2022-07-22T10:58:46;101205.88;;;21.45;62.80
16255;BME280;8235;52.198;9.904;2022-07-22T11:01:15;101205.44;;;21.50;62.28
16255;BME280;8235;52.198;9.904;2022-07-22T11:03:44;101206.25;;;21.50;61.54
16255;BME280;8235;52.198;9.904;2022-07-22T11:06:20;101206.59;;;21.47;61.62
16255;BME280;8235;52.198;9.904;2022-07-22T11:08:48;101203.00;;;21.46;61.38
16255;BME280;8235;52.198;9.904;2022-07-22T11:11:17;101203.00;;;21.46;61.46
16255;BME280;8235;52.198;9.904;2022-07-22T11:13:44;101208.44;;;21.46;61.55
16255;BME280;8235;52.198;9.904;2022-07-22T11:16:16;101204.72;;;21.47;61.22
16255;BME280;8235;52.198;9.904;2022-07-22T11:18:50;101205.44;;;21.50;61.07
16255;BME280;8235;52.198;9.904;2022-07-22T11:21:21;101207.09;;;21.51;60.79
16255;BME280;8235;52.198;9.904;2022-07-22T11:23:49;101203.53;;;21.50;60.71
16255;BME280;8235;52.198;9.904;2022-07-22T11:26:18;101207.28;;;21.49;60.26
16255;BME280;8235;52.198;9.904;2022-07-22T11:28:45;101204.56;;;21.49;60.28
16255;BME280;8235;52.198;9.904;2022-07-22T11:31:15;101198.44;;;21.47;60.77
16255;BME280;8235;52.198;9.904;2022-07-22T11:33:42;101198.13;;;21.50;61.28
16255;BME280;8235;52.198;9.904;2022-07-22T11:36:09;101206.78;;;21.54;61.23
16255;BME280;8235;52.198;9.904;2022-07-22T11:38:41;101206.25;;;21.50;60.97
16255;BME280;8235;52.198;9.904;2022-07-22T11:41:08;101201.31;;;21.45;61.07
16255;BME280;8235;52.198;9.904;2022-07-22T11:43:42;101204.63;;;21.39;60.95
16255;BME280;8235;52.198;9.904;2022-07-22T11:46:09;101207.63;;;21.36;61.14
16255;BME280;8235;52.198;9.904;2022-07-22T11:48:36;101204.22;;;21.34;61.21
16255;BME280;8235;52.198;9.904;2022-07-22T11:51:05;101207.63;;;21.36;61.35
16255;BME280;8235;52.198;9.904;2022-07-22T11:53:33;101204.78;;;21.38;61.32
16255;BME280;8235;52.198;9.904;2022-07-22T11:56:01;101201.91;;;21.39;61.44
16255;BME280;8235;52.198;9.904;2022-07-22T11:58:40;101208.03;;;21.41;61.46
16255;BME280;8235;52.198;9.904;2022-07-22T12:01:08;101209.91;;;21.41;61.30
16255;BME280;8235;52.198;9.904;2022-07-22T12:03:36;101206.47;;;21.39;61.50
16255;BME280;8235;52.198;9.904;2022-07-22T12:06:05;101206.78;;;21.36;61.18
16255;BME280;8235;52.198;9.904;2022-07-22T12:08:32;101204.22;;;21.34;61.31
16255;BME280;8235;52.198;9.904;2022-07-22T12:10:59;101204.22;;;21.34;61.55
16255;BME280;8235;52.198;9.904;2022-07-22T12:13:30;101204.06;;;21.36;61.51
16255;BME280;8235;52.198;9.904;2022-07-22T12:15:58;101196.09;;;21.34;61.28
16255;BME280;8235;52.198;9.904;2022-07-22T12:18:26;101197.09;;;21.33;61.51
16255;BME280;8235;52.198;9.904;2022-07-22T12:20:55;101196.09;;;21.34;61.41
16255;BME280;8235;52.198;9.904;2022-07-22T12:23:22;101196.25;;;21.33;61.17
16255;BME280;8235;52.198;9.904;2022-07-22T12:25:53;101191.81;;;21.32;61.13
16255;BME280;8235;52.198;9.904;2022-07-22T12:28:20;101193.88;;;21.30;61.15
16255;BME280;8235;52.198;9.904;2022-07-22T12:30:48;101194.16;;;21.27;60.96
16255;BME280;8235;52.198;9.904;2022-07-22T12:33:18;101190.75;;;21.25;60.84
16255;BME280;8235;52.198;9.904;2022-07-22T12:35:57;101183.78;;;21.22;61.06
16255;BME280;8235;52.198;9.904;2022-07-22T12:38:24;101185.78;;;21.20;61.05
16255;BME280;8235;52.198;9.904;2022-07-22T12:40:51;101182.34;;;21.18;61.32
16255;BME280;8235;52.198;9.904;2022-07-22T12:43:24;101189.47;;;21.19;61.43
16255;BME280;8235;52.198;9.904;2022-07-22T12:45:51;101183.19;;;21.19;61.60
16255;BME280;8235;52.198;9.904;2022-07-22T12:48:19;101178.78;;;21.18;61.76
16255;BME280;8235;52.198;9.904;2022-07-22T12:50:54;101181.34;;;21.19;61.76
16255;BME280;8235;52.198;9.904;2022-07-22T12:53:21;101186.50;;;21.22;61.84
16255;BME280;8235;52.198;9.904;2022-07-22T12:55:49;101188.03;;;21.25;61.61
16255;BME280;8235;52.198;9.904;2022-07-22T12:58:17;101181.78;;;21.24;61.32
16255;BME280;8235;52.198;9.904;2022-07-22T13:00:45;101190.91;;;21.23;61.09
16255;BME280;8235;52.198;9.904;2022-07-22T13:03:12;101182.06;;;21.21;61.21